Notice: Undefined index: station in /home3/dimtiris/public_html/webApp/metar/index.php on line 4

Metar

Weather conditions for all airports of the world. Just type the ICAO code of an airport.

LGAV 192120Z 24004KT CAVOK 13/07 Q1014

STATION LGAV
OBSERVED Sat Apr 19, 15:20 MDT
NOW Sat Apr 19, 16:06 MDT
AGE 46 min ago
WIND WSW at 5 mph
VISIBILITY greater than 7 miles
CONDITIONS
CLOUDS clear skies
TEMP 55°F (13°C)
DEWPT 45°F (7°C)
HUMIDITY 67%
BAROMETER 1014 hPa (29.94 in Hg)

Get weather info from other station:

Some ICAO codes to try: